createdAt,value
2022-09-06T00:00:37.531Z,1009.97
2022-09-06T00:01:37.512Z,1009.99
2022-09-06T00:02:37.547Z,1010.00
2022-09-06T00:03:37.528Z,1010.03
2022-09-06T00:04:37.605Z,1010.01
2022-09-06T00:05:37.485Z,1010.07
2022-09-06T00:06:37.459Z,1010.04
2022-09-06T00:07:37.452Z,1010.08
2022-09-06T00:08:37.447Z,1010.07
2022-09-06T00:09:37.421Z,1010.05
2022-09-06T00:10:37.423Z,1010.08
2022-09-06T00:11:37.404Z,1010.12
2022-09-06T00:12:37.391Z,1010.12
2022-09-06T00:13:37.385Z,1010.20
2022-09-06T00:14:37.373Z,1010.21
2022-09-06T00:15:37.430Z,1010.27
2022-09-06T00:16:37.344Z,1010.24
2022-09-06T00:17:37.337Z,1010.29
2022-09-06T00:18:37.326Z,1010.24
2022-09-06T00:19:37.314Z,1010.26
2022-09-06T00:20:37.315Z,1010.32
2022-09-06T00:21:37.295Z,1010.26
2022-09-06T00:22:37.281Z,1010.33
2022-09-06T00:23:37.261Z,1010.37
2022-09-06T00:24:37.262Z,1010.43
2022-09-06T00:25:37.244Z,1010.55
2022-09-06T00:26:37.249Z,1010.75
2022-09-06T00:27:37.226Z,1011.30
2022-09-06T00:28:37.215Z,1011.53
2022-09-06T00:29:37.205Z,1011.43
2022-09-06T00:30:37.193Z,1011.30
2022-09-06T00:31:37.278Z,1011.24
2022-09-06T00:32:37.193Z,1011.34
2022-09-06T00:33:37.163Z,1011.29
2022-09-06T00:34:37.138Z,1011.34
2022-09-06T00:35:37.128Z,1011.35
2022-09-06T00:36:37.133Z,1011.34
2022-09-06T00:37:37.110Z,1011.30
2022-09-06T00:38:37.097Z,1011.29
2022-09-06T00:39:37.177Z,1011.25
2022-09-06T00:40:37.995Z,1011.24
2022-09-06T00:41:37.082Z,1011.23
2022-09-06T00:42:37.049Z,1011.22
2022-09-06T00:43:37.047Z,1011.20
2022-09-06T00:44:37.042Z,1011.21
2022-09-06T00:45:37.019Z,1011.17
2022-09-06T00:46:37.150Z,1011.24
2022-09-06T00:47:37.002Z,1011.14
2022-09-06T00:48:36.991Z,1011.20
2022-09-06T00:49:36.975Z,1011.19
2022-09-06T00:50:36.973Z,1011.24
2022-09-06T00:51:36.976Z,1011.22
2022-09-06T00:52:36.957Z,1011.19
2022-09-06T00:53:36.935Z,1011.17
2022-09-06T00:54:36.925Z,1011.14
2022-09-06T00:55:36.905Z,1011.09
2022-09-06T00:56:36.933Z,1011.11
2022-09-06T00:57:36.887Z,1011.09
2022-09-06T00:58:36.871Z,1011.10
2022-09-06T00:59:36.861Z,1011.11
2022-09-06T01:00:36.855Z,1011.10
2022-09-06T01:01:36.993Z,1011.14
2022-09-06T01:02:36.975Z,1011.19
2022-09-06T01:03:36.815Z,1011.14
2022-09-06T01:04:36.807Z,1011.10
2022-09-06T01:05:36.794Z,1011.09
2022-09-06T01:06:36.805Z,1011.01
2022-09-06T01:07:36.770Z,1011.01
2022-09-06T01:08:36.768Z,1010.99
2022-09-06T01:09:36.750Z,1010.84
2022-09-06T01:10:36.736Z,1010.86
2022-09-06T01:11:36.756Z,1010.82
2022-09-06T01:12:36.721Z,1010.79
2022-09-06T01:13:36.702Z,1010.76
2022-09-06T01:14:36.690Z,1010.73
2022-09-06T01:15:36.734Z,1010.76
2022-09-06T01:16:36.692Z,1010.80
2022-09-06T01:17:36.664Z,1010.83
2022-09-06T01:18:36.646Z,1010.85
2022-09-06T01:19:36.640Z,1010.83
2022-09-06T01:20:36.627Z,1010.82
2022-09-06T01:21:36.623Z,1010.81
2022-09-06T01:22:36.606Z,1010.83
2022-09-06T01:23:36.599Z,1010.79
2022-09-06T01:24:36.587Z,1010.78
2022-09-06T01:25:36.570Z,1010.78
2022-09-06T01:26:36.573Z,1010.81
2022-09-06T01:27:36.545Z,1010.79
2022-09-06T01:28:36.539Z,1010.79
2022-09-06T01:29:36.531Z,1010.75
2022-09-06T01:30:36.557Z,1010.79
2022-09-06T01:31:36.513Z,1010.82
2022-09-06T01:32:36.490Z,1010.85
2022-09-06T01:33:36.485Z,1010.87
2022-09-06T01:34:36.471Z,1010.88
2022-09-06T01:35:36.463Z,1010.84
2022-09-06T01:36:45.821Z,1010.82
2022-09-06T01:37:37.439Z,1010.80
2022-09-06T01:38:36.425Z,1010.74
2022-09-06T01:39:36.474Z,1010.75
2022-09-06T01:40:36.497Z,1010.70
2022-09-06T01:41:36.409Z,1010.67
2022-09-06T01:42:36.388Z,1010.66
2022-09-06T01:43:36.384Z,1010.65
2022-09-06T01:44:36.351Z,1010.60
2022-09-06T01:45:36.350Z,1010.58
2022-09-06T01:46:36.399Z,1010.54
2022-09-06T01:47:36.332Z,1010.57
2022-09-06T01:48:36.307Z,1010.57
2022-09-06T01:49:36.301Z,1010.54
2022-09-06T01:50:36.293Z,1010.54
2022-09-06T01:51:36.304Z,1010.53
2022-09-06T01:52:36.271Z,1010.59
2022-09-06T01:53:36.251Z,1010.63
2022-09-06T01:54:36.249Z,1010.66
2022-09-06T01:55:36.229Z,1010.65
2022-09-06T01:56:36.239Z,1010.66
2022-09-06T01:57:36.207Z,1010.63
2022-09-06T01:58:36.198Z,1010.68
2022-09-06T01:59:36.190Z,1010.74
2022-09-06T02:00:36.179Z,1010.80
2022-09-06T02:01:36.269Z,1010.80
2022-09-06T02:02:36.196Z,1010.83
2022-09-06T02:03:36.148Z,1010.83
2022-09-06T02:04:36.129Z,1010.83
2022-09-06T02:05:36.125Z,1010.79
2022-09-06T02:06:36.130Z,1010.75
2022-09-06T02:07:36.105Z,1010.71
2022-09-06T02:08:36.084Z,1010.67
2022-09-06T02:09:36.079Z,1010.64
2022-09-06T02:10:36.066Z,1010.61
2022-09-06T02:11:36.065Z,1010.62
2022-09-06T02:12:36.037Z,1010.62
2022-09-06T02:13:36.027Z,1010.62
2022-09-06T02:14:36.023Z,1010.60
2022-09-06T02:15:36.006Z,1010.58
2022-09-06T02:16:36.127Z,1010.57
2022-09-06T02:17:35.991Z,1010.61
2022-09-06T02:18:35.979Z,1010.63
2022-09-06T02:19:35.961Z,1010.58
2022-09-06T02:20:35.959Z,1010.59
2022-09-06T02:21:35.958Z,1010.57
2022-09-06T02:22:35.927Z,1010.55
2022-09-06T02:23:35.925Z,1010.51
2022-09-06T02:24:35.903Z,1010.52
2022-09-06T02:25:35.903Z,1010.49
2022-09-06T02:26:35.901Z,1010.46
2022-09-06T02:27:35.878Z,1010.46
2022-09-06T02:28:35.865Z,1010.43
2022-09-06T02:29:35.851Z,1010.48
2022-09-06T02:30:35.914Z,1010.52
2022-09-06T02:31:35.844Z,1010.54
2022-09-06T02:32:35.822Z,1010.55
2022-09-06T02:33:35.827Z,1010.50
2022-09-06T02:34:35.809Z,1010.54
2022-09-06T02:35:35.790Z,1010.47
2022-09-06T02:36:35.787Z,1010.47
2022-09-06T02:37:35.767Z,1010.43
2022-09-06T02:38:35.748Z,1010.41
2022-09-06T02:39:35.764Z,1010.39
2022-09-06T02:40:35.733Z,1010.37
2022-09-06T02:41:35.735Z,1010.39
2022-09-06T02:42:35.711Z,1010.39
2022-09-06T02:43:35.703Z,1010.40
2022-09-06T02:44:35.693Z,1010.47
2022-09-06T02:45:35.680Z,1010.51
2022-09-06T02:46:35.684Z,1010.58
2022-09-06T02:47:35.651Z,1010.68
2022-09-06T02:48:35.646Z,1010.80
2022-09-06T02:49:35.631Z,1010.88
2022-09-06T02:50:35.615Z,1010.96
2022-09-06T02:51:35.628Z,1010.94
2022-09-06T02:52:35.591Z,1010.92
2022-09-06T02:53:35.587Z,1010.91
2022-09-06T02:54:35.570Z,1010.95
2022-09-06T02:55:35.559Z,1010.97
2022-09-06T02:56:35.571Z,1010.97
2022-09-06T02:57:35.544Z,1010.89
2022-09-06T02:58:35.527Z,1010.84
2022-09-06T02:59:35.523Z,1010.80
2022-09-06T03:00:35.511Z,1010.76
2022-09-06T03:01:35.566Z,1010.77
2022-09-06T03:02:35.544Z,1010.79
2022-09-06T03:03:35.476Z,1010.78
2022-09-06T03:04:35.457Z,1010.78
2022-09-06T03:05:35.458Z,1010.77
2022-09-06T03:06:35.457Z,1010.78
2022-09-06T03:07:35.423Z,1010.73
2022-09-06T03:08:35.410Z,1010.70
2022-09-06T03:09:35.409Z,1010.63
2022-09-06T03:10:35.396Z,1010.60
2022-09-06T03:11:35.391Z,1010.59
2022-09-06T03:12:35.365Z,1010.57
2022-09-06T03:13:35.361Z,1010.56
2022-09-06T03:14:35.350Z,1010.56
2022-09-06T03:15:35.341Z,1010.51
2022-09-06T03:16:35.369Z,1010.49
2022-09-06T03:17:35.310Z,1010.53
2022-09-06T03:18:35.294Z,1010.53
2022-09-06T03:19:35.295Z,1010.54
2022-09-06T03:20:37.186Z,1010.52
2022-09-06T03:21:35.287Z,1010.54
2022-09-06T03:22:35.271Z,1010.55
2022-09-06T03:23:35.243Z,1010.56
2022-09-06T03:24:35.235Z,1010.58
2022-09-06T03:25:35.227Z,1010.53
2022-09-06T03:26:35.231Z,1010.55
2022-09-06T03:27:35.202Z,1010.53
2022-09-06T03:28:35.184Z,1010.51
2022-09-06T03:29:35.177Z,1010.48
2022-09-06T03:30:35.220Z,1010.46
2022-09-06T03:31:35.172Z,1010.42
2022-09-06T03:32:35.146Z,1010.38
2022-09-06T03:33:35.125Z,1010.37
2022-09-06T03:34:35.124Z,1010.41
2022-09-06T03:35:35.103Z,1010.42
2022-09-06T03:36:35.116Z,1010.38
2022-09-06T03:37:35.081Z,1010.37
2022-09-06T03:38:35.077Z,1010.37
2022-09-06T03:39:35.108Z,1010.37
2022-09-06T03:40:35.055Z,1010.37
2022-09-06T03:41:35.056Z,1010.32
2022-09-06T03:42:35.034Z,1010.32
2022-09-06T03:43:35.013Z,1010.30
2022-09-06T03:44:35.002Z,1010.27
2022-09-06T03:45:35.030Z,1010.29
2022-09-06T03:46:34.993Z,1010.24
2022-09-06T03:47:34.979Z,1010.23
2022-09-06T03:48:34.961Z,1010.22
2022-09-06T03:49:34.949Z,1010.21
2022-09-06T03:50:34.941Z,1010.19
2022-09-06T03:51:34.963Z,1010.21
2022-09-06T03:52:34.922Z,1010.16
2022-09-06T03:53:34.908Z,1010.19
2022-09-06T03:54:34.890Z,1010.15
2022-09-06T03:55:34.885Z,1010.17
2022-09-06T03:56:34.886Z,1010.21
2022-09-06T03:57:34.865Z,1010.21
2022-09-06T03:58:34.851Z,1010.21
2022-09-06T03:59:34.839Z,1010.19
2022-09-06T04:00:34.834Z,1010.21
2022-09-06T04:01:34.881Z,1010.13
2022-09-06T04:02:34.828Z,1010.15
2022-09-06T04:03:34.793Z,1010.14
2022-09-06T04:04:34.785Z,1010.15
2022-09-06T04:05:34.766Z,1010.15
2022-09-06T04:06:34.776Z,1010.16
2022-09-06T04:07:34.749Z,1010.13
2022-09-06T04:08:34.730Z,1010.15
2022-09-06T04:09:34.717Z,1010.15
2022-09-06T04:10:34.716Z,1010.16
2022-09-06T04:11:34.717Z,1010.13
2022-09-06T04:12:34.686Z,1010.11
2022-09-06T04:13:34.674Z,1010.14
2022-09-06T04:14:34.670Z,1010.10
2022-09-06T04:15:34.659Z,1010.19
2022-09-06T04:16:34.733Z,1010.18
2022-09-06T04:17:34.639Z,1010.14
2022-09-06T04:18:34.628Z,1010.14
2022-09-06T04:19:34.639Z,1010.12
2022-09-06T04:20:34.608Z,1010.08
2022-09-06T04:21:34.601Z,1010.07
2022-09-06T04:22:34.577Z,1010.08
2022-09-06T04:23:39.278Z,1010.06
2022-09-06T04:24:35.557Z,1010.05
2022-09-06T04:25:34.546Z,1010.07
2022-09-06T04:26:34.546Z,1010.04
2022-09-06T04:27:34.518Z,1010.02
2022-09-06T04:28:34.539Z,1010.01
2022-09-06T04:29:34.502Z,1010.05
2022-09-06T04:30:34.484Z,1010.01
2022-09-06T04:31:34.571Z,1010.01
2022-09-06T04:32:34.468Z,1010.02
2022-09-06T04:33:34.455Z,1010.03
2022-09-06T04:34:34.462Z,1010.01
2022-09-06T04:35:34.428Z,1010.04
2022-09-06T04:36:34.437Z,1010.06
2022-09-06T04:37:34.407Z,1010.05
2022-09-06T04:38:34.407Z,1010.08
2022-09-06T04:39:34.423Z,1010.08
2022-09-06T04:40:34.384Z,1010.09
2022-09-06T04:41:34.363Z,1010.08
2022-09-06T04:42:34.359Z,1010.09
2022-09-06T04:43:34.343Z,1010.05
2022-09-06T04:44:34.325Z,1010.07
2022-09-06T04:45:34.358Z,1010.10
2022-09-06T04:46:34.308Z,1010.12
2022-09-06T04:47:34.320Z,1010.08
2022-09-06T04:48:34.281Z,1010.09
2022-09-06T04:49:34.267Z,1010.12
2022-09-06T04:50:34.258Z,1010.11
2022-09-06T04:51:34.245Z,1010.11
2022-09-06T04:52:34.257Z,1010.13
2022-09-06T04:53:34.230Z,1010.11
2022-09-06T04:54:34.223Z,1010.13
2022-09-06T04:55:34.230Z,1010.15
2022-09-06T04:56:34.193Z,1010.16
2022-09-06T04:57:34.200Z,1010.17
2022-09-06T04:58:34.176Z,1010.20
2022-09-06T04:59:34.164Z,1010.16
2022-09-06T05:00:34.159Z,1010.21
2022-09-06T05:01:34.200Z,1010.21
2022-09-06T05:02:34.208Z,1010.19
2022-09-06T05:03:34.120Z,1010.23
2022-09-06T05:04:34.110Z,1010.26
2022-09-06T05:05:34.112Z,1010.31
2022-09-06T05:06:34.085Z,1010.30
2022-09-06T05:07:34.078Z,1010.27
2022-09-06T05:08:34.063Z,1010.28
2022-09-06T05:09:34.049Z,1010.23
2022-09-06T05:10:34.042Z,1010.29
2022-09-06T05:11:34.022Z,1010.26
2022-09-06T05:12:34.049Z,1010.29
2022-09-06T05:13:34.007Z,1010.29
2022-09-06T05:14:33.998Z,1010.33
2022-09-06T05:15:33.983Z,1010.35
2022-09-06T05:16:34.041Z,1010.34
2022-09-06T05:17:33.967Z,1010.33
2022-09-06T05:18:33.945Z,1010.33
2022-09-06T05:19:33.935Z,1010.37
2022-09-06T05:20:33.929Z,1010.38
2022-09-06T05:21:33.915Z,1010.36
2022-09-06T05:22:33.940Z,1010.34
2022-09-06T05:23:33.898Z,1010.38
2022-09-06T05:24:33.882Z,1010.38
2022-09-06T05:25:33.863Z,1010.35
2022-09-06T05:26:33.863Z,1010.39
2022-09-06T05:27:33.862Z,1010.37
2022-09-06T05:28:33.832Z,1010.38
2022-09-06T05:29:33.822Z,1010.38
2022-09-06T05:30:33.818Z,1010.36
2022-09-06T05:31:33.866Z,1010.36
2022-09-06T05:32:33.807Z,1010.36
2022-09-06T05:33:33.782Z,1010.38
2022-09-06T05:34:33.767Z,1010.36
2022-09-06T05:35:33.772Z,1010.32
2022-09-06T05:36:33.759Z,1010.31
2022-09-06T05:37:33.766Z,1010.31
2022-09-06T05:38:34.041Z,1010.31
2022-09-06T05:39:33.778Z,1010.34
2022-09-06T05:40:33.705Z,1010.34
2022-09-06T05:41:33.698Z,1010.37
2022-09-06T05:42:33.695Z,1010.36
2022-09-06T05:43:33.671Z,1010.38
2022-09-06T05:44:33.652Z,1010.40
2022-09-06T05:45:33.667Z,1010.39
2022-09-06T05:46:33.662Z,1010.35
2022-09-06T05:47:33.630Z,1010.33
2022-09-06T05:48:37.029Z,1010.32
2022-09-06T05:49:33.612Z,1010.33
2022-09-06T05:50:33.593Z,1010.37
2022-09-06T05:51:33.572Z,1010.35
2022-09-06T05:52:33.609Z,1010.40
2022-09-06T05:53:33.558Z,1010.45
2022-09-06T05:54:33.539Z,1010.44
2022-09-06T05:55:33.530Z,1010.41
2022-09-06T05:56:33.526Z,1010.39
2022-09-06T05:57:33.527Z,1010.44
2022-09-06T05:58:33.495Z,1010.45
2022-09-06T05:59:33.485Z,1010.42
2022-09-06T06:00:33.472Z,1010.42
2022-09-06T06:01:33.558Z,1010.42
2022-09-06T06:02:33.566Z,1010.43
2022-09-06T06:03:33.438Z,1010.44
2022-09-06T06:04:33.427Z,1010.43
2022-09-06T06:05:33.424Z,1010.42
2022-09-06T06:06:33.416Z,1010.38
2022-09-06T06:07:33.413Z,1010.40
2022-09-06T06:08:33.390Z,1010.46
2022-09-06T06:09:33.377Z,1010.39
2022-09-06T06:10:37.883Z,1010.37
2022-09-06T06:11:34.348Z,1010.39
2022-09-06T06:12:33.355Z,1010.40
2022-09-06T06:13:33.336Z,1010.41
2022-09-06T06:14:33.326Z,1010.42
2022-09-06T06:15:33.304Z,1010.42
2022-09-06T06:16:33.359Z,1010.40
2022-09-06T06:17:33.302Z,1010.38
2022-09-06T06:18:33.278Z,1010.36
2022-09-06T06:19:33.278Z,1010.37
2022-09-06T06:20:33.249Z,1010.33
2022-09-06T06:21:33.250Z,1010.35
2022-09-06T06:22:33.250Z,1010.36
2022-09-06T06:23:33.218Z,1010.34
2022-09-06T06:24:33.211Z,1010.36
2022-09-06T06:25:33.190Z,1010.34
2022-09-06T06:26:33.188Z,1010.37
2022-09-06T06:27:33.194Z,1010.36
2022-09-06T06:28:33.162Z,1010.38
2022-09-06T06:29:33.147Z,1010.39
2022-09-06T06:30:33.149Z,1010.34
2022-09-06T06:31:33.255Z,1010.37
2022-09-06T06:32:33.143Z,1010.30
2022-09-06T06:33:33.109Z,1010.31
2022-09-06T06:34:33.098Z,1010.30
2022-09-06T06:35:35.173Z,1010.32
2022-09-06T06:36:34.078Z,1010.28
2022-09-06T06:37:33.075Z,1010.31
2022-09-06T06:38:33.052Z,1010.30
2022-09-06T06:39:33.095Z,1010.29
2022-09-06T06:40:33.030Z,1010.30
2022-09-06T06:41:33.024Z,1010.29
2022-09-06T06:42:33.020Z,1010.25
2022-09-06T06:43:32.995Z,1010.29
2022-09-06T06:44:32.985Z,1010.29
2022-09-06T06:45:33.051Z,1010.32
2022-09-06T06:46:32.958Z,1010.31
2022-09-06T06:47:32.973Z,1010.31
2022-09-06T06:48:32.950Z,1010.32
2022-09-06T06:49:32.955Z,1010.31
2022-09-06T06:50:33.070Z,1010.36
2022-09-06T06:51:33.899Z,1010.38
2022-09-06T06:52:32.908Z,1010.39
2022-09-06T06:53:32.886Z,1010.41
2022-09-06T06:54:32.875Z,1010.44
2022-09-06T06:55:32.862Z,1010.40
2022-09-06T06:56:32.842Z,1010.44
2022-09-06T06:57:32.853Z,1010.42
2022-09-06T06:58:32.832Z,1010.42
2022-09-06T06:59:32.816Z,1010.41
2022-09-06T07:00:32.990Z,1010.37
2022-09-06T07:01:32.970Z,1010.37
2022-09-06T07:02:32.828Z,1010.36
2022-09-06T07:03:32.763Z,1010.37
2022-09-06T07:04:32.759Z,1010.37
2022-09-06T07:07:35.552Z,1010.33
2022-09-06T07:08:32.707Z,1010.33
2022-09-06T07:10:34.122Z,1010.31
2022-09-06T07:11:32.679Z,1010.31
2022-09-06T07:12:32.683Z,1010.30
2022-09-06T07:13:32.662Z,1010.27
2022-09-06T07:14:32.646Z,1010.31
2022-09-06T07:15:32.643Z,1010.32
2022-09-06T07:16:32.738Z,1010.34
2022-09-06T07:17:32.619Z,1010.29
2022-09-06T07:18:32.595Z,1010.27
2022-09-06T07:22:32.562Z,1010.26
2022-09-06T07:24:33.525Z,1010.25
2022-09-06T07:25:32.523Z,1010.20
2022-09-06T07:26:32.668Z,1010.22
2022-09-06T07:27:48.910Z,1010.24
2022-09-06T07:28:33.482Z,1010.22
2022-09-06T07:29:32.498Z,1010.22
2022-09-06T07:30:32.467Z,1010.19
2022-09-06T07:32:33.452Z,1010.20
2022-09-06T07:33:32.429Z,1010.19
2022-09-06T07:34:32.426Z,1010.25
2022-09-06T07:35:32.432Z,1010.22
2022-09-06T07:36:32.394Z,1010.23
2022-09-06T07:37:32.404Z,1010.28
2022-09-06T07:38:32.372Z,1010.27
2022-09-06T07:39:32.411Z,1010.24
2022-09-06T07:40:32.343Z,1010.27
2022-09-06T07:41:32.340Z,1010.29
2022-09-06T07:42:36.150Z,1010.30
2022-09-06T07:43:32.320Z,1010.30
2022-09-06T07:44:32.307Z,1010.27
2022-09-06T07:45:33.173Z,1010.26
2022-09-06T07:46:32.363Z,1010.30
2022-09-06T07:48:01.673Z,1010.28
2022-09-06T07:48:33.252Z,1010.29
2022-09-06T07:49:34.768Z,1010.27
2022-09-06T07:50:48.910Z,1010.25
2022-09-06T07:51:33.229Z,1010.23
2022-09-06T07:53:33.558Z,1010.22
2022-09-06T07:54:33.174Z,1010.22
2022-09-06T07:55:32.187Z,1010.19
2022-09-06T07:56:32.163Z,1010.15
2022-09-06T07:57:32.174Z,1010.18
2022-09-06T07:58:32.157Z,1010.16
2022-09-06T07:59:32.137Z,1010.19
2022-09-06T08:00:32.124Z,1010.22
2022-09-06T08:01:32.114Z,1010.19
2022-09-06T08:02:32.183Z,1010.23
2022-09-06T08:03:32.097Z,1010.23
2022-09-06T08:04:32.079Z,1010.29
2022-09-06T08:07:40.609Z,1010.23
2022-09-06T08:09:33.032Z,1010.21
2022-09-06T08:10:32.014Z,1010.21
2022-09-06T08:11:31.998Z,1010.21
2022-09-06T08:12:32.004Z,1010.19
2022-09-06T08:13:31.974Z,1010.22
2022-09-06T08:14:31.976Z,1010.18
2022-09-06T08:15:33.519Z,1010.22
2022-09-06T08:16:32.097Z,1010.20
2022-09-06T08:17:31.978Z,1010.21
2022-09-06T08:18:31.928Z,1010.20
2022-09-06T08:19:31.916Z,1010.20
2022-09-06T08:20:31.897Z,1010.19
2022-09-06T08:21:31.886Z,1010.20
2022-09-06T08:22:31.891Z,1010.23
2022-09-06T08:23:31.870Z,1010.22
2022-09-06T08:24:31.857Z,1010.22
2022-09-06T08:25:31.842Z,1010.17
2022-09-06T08:26:31.860Z,1010.17
2022-09-06T08:27:31.835Z,1010.18
2022-09-06T08:28:31.824Z,1010.14
2022-09-06T08:29:31.806Z,1010.16
2022-09-06T08:30:31.788Z,1010.11
2022-09-06T08:31:31.885Z,1010.11
2022-09-06T08:32:31.785Z,1010.13
2022-09-06T08:33:31.774Z,1010.16
2022-09-06T08:34:31.755Z,1010.17
2022-09-06T08:35:31.732Z,1010.17
2022-09-06T08:36:31.722Z,1010.10
2022-09-06T08:37:31.718Z,1010.11
2022-09-06T08:38:31.695Z,1010.09
2022-09-06T08:39:31.785Z,1010.05
2022-09-06T08:40:31.676Z,1010.05
2022-09-06T08:41:31.664Z,1010.06
2022-09-06T08:42:31.677Z,1010.10
2022-09-06T08:43:31.647Z,1010.10
2022-09-06T08:45:32.646Z,1010.15
2022-09-06T08:46:31.712Z,1010.10
2022-09-06T08:47:31.642Z,1010.10
2022-09-06T08:48:31.586Z,1010.08
2022-09-06T08:49:31.597Z,1010.10
2022-09-06T08:50:31.566Z,1010.06
2022-09-06T08:51:33.376Z,1010.10
2022-09-06T08:52:31.563Z,1010.05
2022-09-06T08:53:31.533Z,1010.06
2022-09-06T08:54:31.519Z,1010.04
2022-09-06T08:55:31.514Z,1010.00
2022-09-06T08:56:31.528Z,1010.00
2022-09-06T08:57:31.508Z,1010.02
2022-09-06T08:58:31.474Z,1010.02
2022-09-06T08:59:31.475Z,1010.05
2022-09-06T09:00:31.496Z,1010.00
2022-09-06T09:01:31.444Z,1010.00
2022-09-06T09:02:31.451Z,1010.01
2022-09-06T09:03:31.423Z,1010.01
2022-09-06T09:04:31.409Z,1009.95
2022-09-06T09:05:31.397Z,1010.00
2022-09-06T09:06:31.391Z,1009.94
2022-09-06T09:07:31.388Z,1009.86
2022-09-06T09:08:31.426Z,1009.85
2022-09-06T09:09:31.352Z,1009.88
2022-09-06T09:10:31.340Z,1009.89
2022-09-06T09:11:31.332Z,1009.90
2022-09-06T09:12:31.343Z,1009.87
2022-09-06T09:13:31.321Z,1009.89
2022-09-06T09:14:31.296Z,1009.88
2022-09-06T09:15:31.295Z,1009.87
2022-09-06T09:16:31.354Z,1009.88
2022-09-06T09:17:31.319Z,1009.86
2022-09-06T09:18:31.257Z,1009.86
2022-09-06T09:19:31.264Z,1009.83
2022-09-06T09:20:31.274Z,1009.82
2022-09-06T09:21:31.292Z,1009.78
2022-09-06T09:22:31.231Z,1009.80
2022-09-06T09:23:31.199Z,1009.77
2022-09-06T09:24:31.197Z,1009.73
2022-09-06T09:25:31.185Z,1009.74
2022-09-06T09:26:31.162Z,1009.74
2022-09-06T09:27:31.175Z,1009.75
2022-09-06T09:28:31.146Z,1009.68
2022-09-06T09:29:35.690Z,1009.67
2022-09-06T09:30:48.066Z,1009.67
2022-09-06T09:31:32.231Z,1009.69
2022-09-06T09:32:31.130Z,1009.70
2022-09-06T09:33:31.094Z,1009.68
2022-09-06T09:34:31.085Z,1009.69
2022-09-06T09:35:31.065Z,1009.67
2022-09-06T09:36:31.165Z,1009.63
2022-09-06T09:37:47.047Z,1009.62
2022-09-06T09:38:32.050Z,1009.62
2022-09-06T09:39:31.074Z,1009.58
2022-09-06T09:40:31.011Z,1009.64
2022-09-06T09:41:31.001Z,1009.58
2022-09-06T09:42:31.014Z,1009.56
2022-09-06T09:43:31.006Z,1009.54
2022-09-06T09:44:30.973Z,1009.55
2022-09-06T09:45:30.958Z,1009.49
2022-09-06T09:46:30.977Z,1009.47
2022-09-06T09:47:30.941Z,1009.46
2022-09-06T09:48:30.944Z,1009.44
2022-09-06T09:49:30.918Z,1009.40
2022-09-06T09:50:30.904Z,1009.38
2022-09-06T09:51:30.905Z,1009.45
2022-09-06T09:52:30.978Z,1009.38
2022-09-06T09:53:30.900Z,1009.41
2022-09-06T09:54:30.872Z,1009.41
2022-09-06T09:55:30.853Z,1009.44
2022-09-06T09:56:30.852Z,1009.44
2022-09-06T09:57:30.828Z,1009.41
2022-09-06T09:58:30.829Z,1009.41
2022-09-06T09:59:30.815Z,1009.42
2022-09-06T10:00:30.845Z,1009.48
2022-09-06T10:01:30.782Z,1009.46
2022-09-06T10:02:30.782Z,1009.45
2022-09-06T10:03:31.244Z,1009.39
2022-09-06T10:04:46.237Z,1009.42
2022-09-06T10:05:31.747Z,1009.46
2022-09-06T10:07:31.717Z,1009.46
2022-09-06T10:08:30.731Z,1009.53
2022-09-06T10:09:30.703Z,1009.47
2022-09-06T10:10:30.691Z,1009.49
2022-09-06T10:11:30.692Z,1009.46
2022-09-06T10:12:30.668Z,1009.47
2022-09-06T10:13:30.687Z,1009.52
2022-09-06T10:14:30.642Z,1009.58
2022-09-06T10:15:30.642Z,1009.54
2022-09-06T10:16:30.670Z,1009.48
2022-09-06T10:17:30.608Z,1009.55
2022-09-06T10:18:30.618Z,1009.55
2022-09-06T10:19:30.592Z,1009.54
2022-09-06T10:20:30.586Z,1009.57
2022-09-06T10:21:30.587Z,1009.52
2022-09-06T10:22:30.573Z,1009.57
2022-09-06T10:24:31.544Z,1009.49
2022-09-06T10:25:30.534Z,1009.51
2022-09-06T10:26:30.511Z,1009.59
2022-09-06T10:27:30.510Z,1009.56
2022-09-06T10:28:30.513Z,1009.59
2022-09-06T10:29:30.499Z,1009.58
2022-09-06T10:30:30.476Z,1009.55
2022-09-06T10:31:30.541Z,1009.50
2022-09-06T10:32:31.216Z,1009.50
2022-09-06T10:33:30.457Z,1009.45
2022-09-06T10:34:30.427Z,1009.42
2022-09-06T10:35:30.431Z,1009.34
2022-09-06T10:36:30.408Z,1009.37
2022-09-06T10:37:30.398Z,1009.39
2022-09-06T10:38:30.405Z,1009.39
2022-09-06T10:39:30.409Z,1009.37
2022-09-06T10:40:30.370Z,1009.39
2022-09-06T10:41:30.353Z,1009.34
2022-09-06T10:42:30.347Z,1009.35
2022-09-06T10:43:30.375Z,1009.36
2022-09-06T10:44:30.328Z,1009.37
2022-09-06T10:45:30.317Z,1009.35
2022-09-06T10:46:30.417Z,1009.34
2022-09-06T10:47:30.296Z,1009.31
2022-09-06T10:48:30.486Z,1009.30
2022-09-06T10:49:30.275Z,1009.35
2022-09-06T10:50:30.260Z,1009.34
2022-09-06T10:51:30.259Z,1009.33
2022-09-06T10:52:30.247Z,1009.28
2022-09-06T10:53:30.240Z,1009.27
2022-09-06T10:54:30.222Z,1009.28
2022-09-06T10:55:30.213Z,1009.26
2022-09-06T10:56:30.210Z,1009.25
2022-09-06T11:00:30.158Z,1009.14
2022-09-06T11:01:30.250Z,1009.11
2022-09-06T11:02:30.346Z,1009.15
2022-09-06T11:04:31.113Z,1009.11
2022-09-06T11:06:31.094Z,1009.12
2022-09-06T11:07:30.092Z,1009.09
2022-09-06T11:09:31.066Z,1009.14
2022-09-06T11:10:30.066Z,1009.14
2022-09-06T11:11:30.073Z,1009.10
2022-09-06T11:12:30.037Z,1009.06
2022-09-06T11:13:30.046Z,1009.05
2022-09-06T11:14:30.015Z,1009.07
2022-09-06T11:15:30.000Z,1009.07
2022-09-06T11:16:30.041Z,1009.08
2022-09-06T11:17:29.987Z,1009.06
2022-09-06T11:18:29.999Z,1009.07
2022-09-06T11:19:29.960Z,1009.02
2022-09-06T11:20:32.295Z,1009.01
2022-09-06T11:21:29.934Z,1009.01
2022-09-06T11:22:29.919Z,1009.00
2022-09-06T11:23:30.062Z,1009.02
2022-09-06T11:24:29.900Z,1009.03
2022-09-06T11:25:29.894Z,1009.04
2022-09-06T11:26:29.882Z,1009.02
2022-09-06T11:27:29.875Z,1009.04
2022-09-06T11:28:29.875Z,1009.02
2022-09-06T11:29:29.853Z,1009.02
2022-09-06T11:30:29.855Z,1009.01
2022-09-06T11:32:30.837Z,1009.04
2022-09-06T11:33:29.935Z,1009.02
2022-09-06T11:34:29.791Z,1009.04
2022-09-06T11:35:29.793Z,1009.03
2022-09-06T11:36:29.775Z,1008.99
2022-09-06T11:37:29.766Z,1008.92
2022-09-06T11:38:29.766Z,1008.96
2022-09-06T11:40:30.784Z,1008.93
2022-09-06T11:41:29.723Z,1008.93
2022-09-06T11:42:29.706Z,1009.02
2022-09-06T11:43:29.709Z,1009.00
2022-09-06T11:44:29.689Z,1009.00
2022-09-06T11:45:29.689Z,1009.03
2022-09-06T11:46:29.693Z,1009.02
2022-09-06T11:47:29.670Z,1008.97
2022-09-06T11:48:29.665Z,1008.99
2022-09-06T11:49:29.658Z,1009.01
2022-09-06T11:50:29.640Z,1008.94
2022-09-06T11:51:29.631Z,1008.95
2022-09-06T11:52:29.619Z,1008.92
2022-09-06T11:53:29.790Z,1008.90
2022-09-06T11:54:29.592Z,1008.95
2022-09-06T11:55:29.585Z,1008.92
2022-09-06T11:56:29.569Z,1008.88
2022-09-06T11:57:29.551Z,1008.84
2022-09-06T11:58:29.556Z,1008.81
2022-09-06T11:59:29.551Z,1008.77
2022-09-06T12:00:29.536Z,1008.77
2022-09-06T12:01:29.532Z,1008.78
2022-09-06T12:02:29.691Z,1008.72
2022-09-06T12:04:30.494Z,1008.72
2022-09-06T12:05:29.469Z,1008.73
2022-09-06T12:06:29.463Z,1008.73
2022-09-06T12:07:29.452Z,1008.75
2022-09-06T12:08:29.620Z,1008.73
2022-09-06T12:09:29.441Z,1008.63
2022-09-06T12:10:29.426Z,1008.65
2022-09-06T12:11:30.658Z,1008.68
2022-09-06T12:12:29.392Z,1008.69
2022-09-06T12:13:29.392Z,1008.65
2022-09-06T12:14:29.400Z,1008.64
2022-09-06T12:15:29.368Z,1008.64
2022-09-06T12:16:29.410Z,1008.67
2022-09-06T12:17:29.340Z,1008.66
2022-09-06T12:18:29.420Z,1008.64
2022-09-06T12:19:29.325Z,1008.66
2022-09-06T12:20:29.326Z,1008.67
2022-09-06T12:21:29.305Z,1008.69
2022-09-06T12:22:29.300Z,1008.67
2022-09-06T12:23:29.285Z,1008.70
2022-09-06T12:24:29.272Z,1008.66
2022-09-06T12:25:29.267Z,1008.71
2022-09-06T12:26:29.256Z,1008.70
2022-09-06T12:27:29.233Z,1008.70
2022-09-06T12:28:29.392Z,1008.70
2022-09-06T12:29:29.220Z,1008.72